DAL457 KJFK-KDEN
Flight info
| Callsign | DAL457 |
|---|---|
| Flight time | N/A |
| Altitude | 38000 |
| Route | COATE Q436 RAAKK Q438 RUBYY DABJU J36 BAE MCW ONL PORDR AALLE4 |
| Aircraft | B738/M-SDE2E3FGHIRWXY/LB1 |
Departure
| Time | 2026-05-08 13:11 |
|---|---|
| Airport | John F. Kennedy International Airport (KJFK) |
Arrival
| Time | N/A |
|---|---|
| Airport | Denver International Airport (KDEN) |
| Time | Latitude | Longitude | Altitude | Speed | Heading |
|---|---|---|---|---|---|
| 2026-05-08 12:30 | 40.63612 | -73.78021 | 22 ft | 0 kts | 263° |
| 2026-05-08 13:00 | 40.63614 | -73.78001 | 24 ft | 3 kts | 263° |
| 2026-05-08 13:00 | 40.63616 | -73.77979 | 25 ft | 3 kts | 289° |
| 2026-05-08 13:01 | 40.63607 | -73.77965 | 27 ft | 3 kts | 351° |
| 2026-05-08 13:01 | 40.63585 | -73.77962 | 23 ft | 3 kts | 353° |
| 2026-05-08 13:01 | 40.63567 | -73.77959 | 24 ft | 3 kts | 353° |
| 2026-05-08 13:01 | 40.63552 | -73.77956 | 24 ft | 0 kts | 353° |
| 2026-05-08 13:05 | 40.63563 | -73.77958 | 24 ft | 3 kts | 353° |
| 2026-05-08 13:05 | 40.63593 | -73.77963 | 23 ft | 6 kts | 353° |
| 2026-05-08 13:05 | 40.63639 | -73.77966 | 22 ft | 8 kts | 14° |
| 2026-05-08 13:06 | 40.63660 | -73.77907 | 22 ft | 9 kts | 123° |
| 2026-05-08 13:06 | 40.63595 | -73.77881 | 23 ft | 11 kts | 155° |
| 2026-05-08 13:06 | 40.63540 | -73.77813 | 21 ft | 9 kts | 163° |
| 2026-05-08 13:06 | 40.63482 | -73.77846 | 23 ft | 12 kts | 211° |
| 2026-05-08 13:07 | 40.63397 | -73.77917 | 25 ft | 12 kts | 209° |
| 2026-05-08 13:07 | 40.63328 | -73.77852 | 28 ft | 16 kts | 120° |
| 2026-05-08 13:07 | 40.63255 | -73.77691 | 26 ft | 25 kts | 121° |
| 2026-05-08 13:07 | 40.63157 | -73.77473 | 29 ft | 27 kts | 120° |
| 2026-05-08 13:08 | 40.63060 | -73.77258 | 26 ft | 24 kts | 121° |
| 2026-05-08 13:08 | 40.62988 | -73.77100 | 24 ft | 10 kts | 123° |
| 2026-05-08 13:08 | 40.62930 | -73.77099 | 26 ft | 10 kts | 210° |
| 2026-05-08 13:08 | 40.62873 | -73.77143 | 23 ft | 9 kts | 211° |
| 2026-05-08 13:09 | 40.62818 | -73.77187 | 24 ft | 8 kts | 214° |
| 2026-05-08 13:09 | 40.62816 | -73.77212 | 25 ft | 0 kts | 297° |
| 2026-05-08 13:10 | 40.62819 | -73.77220 | 24 ft | 5 kts | 297° |
| 2026-05-08 13:10 | 40.62950 | -73.77508 | 27 ft | 72 kts | 302° |
| 2026-05-08 13:10 | 40.63320 | -73.78328 | 22 ft | 135 kts | 301° |
| 2026-05-08 13:10 | 40.63881 | -73.79565 | 155 ft | 175 kts | 301° |
| 2026-05-08 13:11 | 40.64504 | -73.81000 | 827 ft | 185 kts | 300° |
| 2026-05-08 13:11 | 40.65147 | -73.82478 | 1636 ft | 190 kts | 300° |
| 2026-05-08 13:11 | 40.65789 | -73.84002 | 2309 ft | 193 kts | 299° |
| 2026-05-08 13:11 | 40.66415 | -73.85571 | 3048 ft | 197 kts | 296° |
| 2026-05-08 13:12 | 40.66835 | -73.87336 | 3670 ft | 209 kts | 282° |
| 2026-05-08 13:12 | 40.66884 | -73.89322 | 4183 ft | 229 kts | 265° |
| 2026-05-08 13:12 | 40.66306 | -73.91438 | 4335 ft | 268 kts | 240° |
| 2026-05-08 13:12 | 40.64857 | -73.93207 | 4584 ft | 304 kts | 211° |
| 2026-05-08 13:13 | 40.62757 | -73.93743 | 5453 ft | 315 kts | 175° |
| 2026-05-08 13:13 | 40.60798 | -73.92560 | 6325 ft | 325 kts | 136° |
| 2026-05-08 13:13 | 40.59596 | -73.89938 | 6577 ft | 348 kts | 112° |
| 2026-05-08 13:13 | 40.58724 | -73.86979 | 7488 ft | 343 kts | 108° |
| 2026-05-08 13:14 | 40.57939 | -73.84047 | 8559 ft | 337 kts | 108° |
| 2026-05-08 13:14 | 40.57272 | -73.81120 | 9642 ft | 328 kts | 96° |
| 2026-05-08 13:14 | 40.57227 | -73.78184 | 10569 ft | 320 kts | 77° |
| 2026-05-08 13:14 | 40.57833 | -73.75323 | 10863 ft | 332 kts | 61° |
| 2026-05-08 13:15 | 40.58846 | -73.72488 | 11057 ft | 352 kts | 58° |
| 2026-05-08 13:15 | 40.59971 | -73.69578 | 11238 ft | 371 kts | 58° |
| 2026-05-08 13:15 | 40.61177 | -73.66524 | 11664 ft | 381 kts | 57° |
| 2026-05-08 13:15 | 40.62558 | -73.63519 | 12228 ft | 382 kts | 46° |
| 2026-05-08 13:16 | 40.64443 | -73.61097 | 12829 ft | 377 kts | 30° |
| 2026-05-08 13:16 | 40.66697 | -73.59376 | 13478 ft | 375 kts | 19° |
| 2026-05-08 13:16 | 40.69075 | -73.57900 | 14090 ft | 379 kts | 18° |
| 2026-05-08 13:16 | 40.71496 | -73.56451 | 14704 ft | 383 kts | 17° |
| 2026-05-08 13:17 | 40.73917 | -73.55036 | 15319 ft | 385 kts | 14° |
| 2026-05-08 13:17 | 40.76487 | -73.54184 | 15939 ft | 376 kts | 358° |
| 2026-05-08 13:17 | 40.79061 | -73.54283 | 16563 ft | 366 kts | 342° |
| 2026-05-08 13:17 | 40.81436 | -73.55247 | 17278 ft | 358 kts | 330° |
| 2026-05-08 13:18 | 40.83717 | -73.56593 | 17955 ft | 359 kts | 328° |
| 2026-05-08 13:18 | 40.85895 | -73.58162 | 18516 ft | 355 kts | 317° |
| 2026-05-08 13:18 | 40.87645 | -73.60405 | 19109 ft | 347 kts | 303° |
| 2026-05-08 13:18 | 40.88998 | -73.63031 | 19731 ft | 346 kts | 298° |
| 2026-05-08 13:19 | 40.90226 | -73.65774 | 20297 ft | 346 kts | 293° |
| 2026-05-08 13:19 | 40.91040 | -73.68759 | 20905 ft | 344 kts | 284° |
| 2026-05-08 13:19 | 40.91700 | -73.71769 | 21466 ft | 346 kts | 285° |
| 2026-05-08 13:19 | 40.92386 | -73.74844 | 22009 ft | 348 kts | 285° |
| 2026-05-08 13:20 | 40.93080 | -73.77926 | 22538 ft | 350 kts | 285° |
| 2026-05-08 13:20 | 40.93779 | -73.81017 | 23085 ft | 352 kts | 285° |
| 2026-05-08 13:20 | 40.94481 | -73.84106 | 23583 ft | 354 kts | 285° |
| 2026-05-08 13:20 | 40.95193 | -73.87239 | 24020 ft | 355 kts | 285° |
| 2026-05-08 13:21 | 40.95908 | -73.90379 | 24524 ft | 355 kts | 285° |
| 2026-05-08 13:21 | 40.96622 | -73.93525 | 24935 ft | 356 kts | 285° |
| 2026-05-08 13:21 | 40.97327 | -73.96631 | 25396 ft | 356 kts | 285° |
| 2026-05-08 13:21 | 40.98041 | -73.99777 | 25857 ft | 356 kts | 284° |
| 2026-05-08 13:22 | 40.98754 | -74.02922 | 26276 ft | 357 kts | 284° |
| 2026-05-08 13:22 | 40.99468 | -74.06080 | 26676 ft | 358 kts | 284° |
| 2026-05-08 13:22 | 41.00183 | -74.09248 | 27039 ft | 360 kts | 284° |
| 2026-05-08 13:22 | 41.00901 | -74.12431 | 27459 ft | 360 kts | 284° |
| 2026-05-08 13:23 | 41.01619 | -74.15617 | 27865 ft | 360 kts | 284° |
| 2026-05-08 13:23 | 41.02335 | -74.18801 | 28217 ft | 362 kts | 284° |
| 2026-05-08 13:23 | 41.03055 | -74.22008 | 28573 ft | 363 kts | 284° |
| 2026-05-08 13:23 | 41.03765 | -74.25177 | 28930 ft | 363 kts | 284° |
| 2026-05-08 13:24 | 41.04482 | -74.28375 | 29459 ft | 360 kts | 284° |
| 2026-05-08 13:24 | 41.05190 | -74.31538 | 30086 ft | 355 kts | 284° |
| 2026-05-08 13:24 | 41.05890 | -74.34664 | 30508 ft | 353 kts | 284° |
| 2026-05-08 13:24 | 41.06589 | -74.37801 | 30663 ft | 357 kts | 284° |
| 2026-05-08 13:25 | 41.07284 | -74.40931 | 30861 ft | 359 kts | 284° |
| 2026-05-08 13:25 | 41.07991 | -74.44115 | 31239 ft | 357 kts | 284° |
| 2026-05-08 13:25 | 41.08693 | -74.47276 | 31576 ft | 357 kts | 284° |
| 2026-05-08 13:25 | 41.09388 | -74.50405 | 31841 ft | 358 kts | 284° |
| 2026-05-08 13:26 | 41.10090 | -74.53581 | 32120 ft | 359 kts | 284° |
| 2026-05-08 13:26 | 41.10795 | -74.56770 | 32427 ft | 359 kts | 284° |
| 2026-05-08 13:26 | 41.11497 | -74.59943 | 32774 ft | 358 kts | 284° |
| 2026-05-08 13:26 | 41.12198 | -74.63126 | 33057 ft | 359 kts | 284° |
| 2026-05-08 13:27 | 41.12890 | -74.66268 | 33330 ft | 360 kts | 284° |
| 2026-05-08 13:27 | 41.13721 | -74.69413 | 33627 ft | 361 kts | 289° |
| 2026-05-08 13:27 | 41.14828 | -74.72425 | 33934 ft | 364 kts | 295° |
| 2026-05-08 13:27 | 41.16099 | -74.75343 | 34158 ft | 365 kts | 295° |
| 2026-05-08 13:28 | 41.17381 | -74.78258 | 34334 ft | 367 kts | 295° |
| 2026-05-08 13:28 | 41.18676 | -74.81194 | 34600 ft | 367 kts | 295° |
| 2026-05-08 13:28 | 41.21265 | -74.87112 | 34765 ft | 376 kts | 295° |
| 2026-05-08 13:29 | 41.22572 | -74.90113 | 35026 ft | 375 kts | 295° |
| 2026-05-08 13:29 | 41.23879 | -74.93116 | 35271 ft | 374 kts | 295° |
| 2026-05-08 13:29 | 41.25183 | -74.96121 | 35424 ft | 376 kts | 295° |
| 2026-05-08 13:29 | 41.26493 | -74.99145 | 35593 ft | 378 kts | 295° |
| 2026-05-08 13:30 | 41.27789 | -75.02141 | 35802 ft | 378 kts | 295° |
| 2026-05-08 13:30 | 41.29116 | -75.05209 | 36009 ft | 378 kts | 295° |
| 2026-05-08 13:30 | 41.30411 | -75.08210 | 36180 ft | 380 kts | 295° |
| 2026-05-08 13:30 | 41.31732 | -75.11271 | 36395 ft | 380 kts | 295° |
| 2026-05-08 13:31 | 41.33048 | -75.14326 | 36575 ft | 381 kts | 295° |
| 2026-05-08 13:31 | 41.34367 | -75.17388 | 36732 ft | 382 kts | 295° |
| 2026-05-08 13:31 | 41.35691 | -75.20469 | 36894 ft | 383 kts | 295° |
| 2026-05-08 13:31 | 41.37015 | -75.23550 | 37077 ft | 384 kts | 295° |
| 2026-05-08 13:32 | 41.38326 | -75.26604 | 37217 ft | 385 kts | 295° |
| 2026-05-08 13:32 | 41.39674 | -75.29747 | 37396 ft | 386 kts | 295° |
| 2026-05-08 13:32 | 41.40989 | -75.32817 | 37566 ft | 386 kts | 295° |
| 2026-05-08 13:32 | 41.42324 | -75.35938 | 37737 ft | 387 kts | 295° |
| 2026-05-08 13:33 | 41.43660 | -75.39062 | 37881 ft | 387 kts | 295° |
| 2026-05-08 13:33 | 41.44978 | -75.42149 | 37965 ft | 388 kts | 295° |
| 2026-05-08 13:33 | 41.47624 | -75.48461 | 37972 ft | 387 kts | 292° |
| 2026-05-08 13:34 | 41.49595 | -75.55101 | 37969 ft | 385 kts | 288° |
| 2026-05-08 13:34 | 41.51479 | -75.61740 | 37969 ft | 384 kts | 288° |
| 2026-05-08 13:35 | 41.53389 | -75.68419 | 37963 ft | 385 kts | 288° |
| 2026-05-08 13:35 | 41.55301 | -75.75094 | 37965 ft | 385 kts | 288° |
| 2026-05-08 13:36 | 41.57203 | -75.81751 | 37959 ft | 385 kts | 288° |
| 2026-05-08 13:36 | 41.59106 | -75.88441 | 37956 ft | 386 kts | 288° |
| 2026-05-08 13:37 | 41.60998 | -75.95157 | 37964 ft | 386 kts | 288° |
| 2026-05-08 13:37 | 41.62890 | -76.01893 | 37962 ft | 387 kts | 288° |
| 2026-05-08 13:38 | 41.64772 | -76.08602 | 37960 ft | 387 kts | 288° |
| 2026-05-08 13:38 | 41.66660 | -76.15347 | 37967 ft | 388 kts | 288° |
| 2026-05-08 13:39 | 41.68549 | -76.22117 | 37963 ft | 388 kts | 288° |
| 2026-05-08 13:39 | 41.70451 | -76.28880 | 37958 ft | 388 kts | 288° |
| 2026-05-08 13:40 | 41.72347 | -76.35603 | 37956 ft | 388 kts | 288° |
| 2026-05-08 13:40 | 41.74248 | -76.42367 | 37960 ft | 387 kts | 288° |
| 2026-05-08 13:41 | 41.76146 | -76.49142 | 37960 ft | 387 kts | 288° |
| 2026-05-08 13:41 | 41.78025 | -76.55888 | 37961 ft | 387 kts | 288° |
| 2026-05-08 13:42 | 41.79897 | -76.62669 | 37961 ft | 387 kts | 288° |
| 2026-05-08 13:42 | 41.81753 | -76.69409 | 37956 ft | 387 kts | 288° |
| 2026-05-08 13:43 | 41.83301 | -76.75039 | 37964 ft | 387 kts | 288° |
| 2026-05-08 13:43 | 41.85166 | -76.81838 | 37961 ft | 387 kts | 288° |
| 2026-05-08 13:44 | 41.87012 | -76.88579 | 37969 ft | 387 kts | 288° |
| 2026-05-08 13:44 | 41.88865 | -76.95376 | 37964 ft | 387 kts | 288° |
| 2026-05-08 13:45 | 41.90692 | -77.02139 | 37948 ft | 387 kts | 288° |
| 2026-05-08 13:45 | 41.92525 | -77.08943 | 37970 ft | 387 kts | 288° |
| 2026-05-08 13:46 | 41.94357 | -77.15761 | 37968 ft | 387 kts | 288° |
| 2026-05-08 13:46 | 41.96172 | -77.22531 | 37949 ft | 387 kts | 288° |
| 2026-05-08 13:47 | 41.97997 | -77.29353 | 37964 ft | 387 kts | 288° |
| 2026-05-08 13:47 | 41.99818 | -77.36178 | 37958 ft | 388 kts | 288° |
| 2026-05-08 13:48 | 42.01631 | -77.42980 | 37962 ft | 388 kts | 288° |
| 2026-05-08 13:48 | 42.03493 | -77.49818 | 37959 ft | 389 kts | 288° |
| 2026-05-08 13:49 | 42.05360 | -77.56662 | 37961 ft | 389 kts | 288° |
| 2026-05-08 13:49 | 42.07208 | -77.63463 | 37954 ft | 389 kts | 288° |
| 2026-05-08 13:50 | 42.09068 | -77.70338 | 37965 ft | 389 kts | 288° |
| 2026-05-08 13:50 | 42.10906 | -77.77152 | 37966 ft | 389 kts | 288° |
| 2026-05-08 13:51 | 42.12754 | -77.84026 | 37954 ft | 389 kts | 288° |
| 2026-05-08 13:51 | 42.14596 | -77.90895 | 37954 ft | 389 kts | 288° |
| 2026-05-08 13:52 | 42.16425 | -77.97734 | 37960 ft | 389 kts | 288° |
| 2026-05-08 13:52 | 42.18256 | -78.04599 | 37957 ft | 389 kts | 288° |
| 2026-05-08 13:53 | 42.20082 | -78.11468 | 37954 ft | 389 kts | 288° |
| 2026-05-08 13:53 | 42.21893 | -78.18295 | 37943 ft | 389 kts | 288° |
| 2026-05-08 13:54 | 42.23711 | -78.25168 | 37940 ft | 388 kts | 288° |
| 2026-05-08 13:54 | 42.25489 | -78.32063 | 37934 ft | 388 kts | 287° |
| 2026-05-08 13:55 | 42.27191 | -78.38947 | 37975 ft | 388 kts | 287° |
| 2026-05-08 13:56 | 42.29757 | -78.49347 | 37970 ft | 389 kts | 287° |
| 2026-05-08 13:56 | 42.31472 | -78.56290 | 37973 ft | 389 kts | 287° |
| 2026-05-08 13:57 | 42.36688 | -78.77521 | 37964 ft | 388 kts | 287° |
| 2026-05-08 13:57 | 42.43471 | -79.05307 | 37981 ft | 387 kts | 287° |
| 2026-05-08 13:58 | 42.50168 | -79.32885 | 37987 ft | 387 kts | 287° |
| 2026-05-08 13:58 | 42.56847 | -79.60740 | 37969 ft | 388 kts | 287° |
| 2026-05-08 13:59 | 42.61664 | -79.88898 | 37987 ft | 387 kts | 274° |
| 2026-05-08 13:59 | 42.62900 | -80.18139 | 37948 ft | 387 kts | 275° |
| 2026-05-08 14:00 | 42.64083 | -80.47411 | 37962 ft | 387 kts | 274° |
| 2026-05-08 14:00 | 42.65112 | -80.76624 | 37961 ft | 387 kts | 274° |
| 2026-05-08 14:01 | 42.66057 | -81.05645 | 37967 ft | 386 kts | 274° |
| 2026-05-08 14:01 | 42.67407 | -81.34619 | 37953 ft | 385 kts | 279° |
| 2026-05-08 14:02 | 42.70943 | -81.63482 | 37960 ft | 384 kts | 279° |
| 2026-05-08 14:02 | 42.74139 | -81.92095 | 37961 ft | 384 kts | 279° |
| 2026-05-08 14:03 | 42.77284 | -82.20789 | 37958 ft | 385 kts | 278° |
| 2026-05-08 14:03 | 42.80374 | -82.49682 | 37951 ft | 385 kts | 278° |
| 2026-05-08 14:04 | 42.84015 | -82.78313 | 37929 ft | 385 kts | 281° |
| 2026-05-08 14:04 | 42.87880 | -83.07049 | 37936 ft | 386 kts | 280° |
| 2026-05-08 14:05 | 42.91543 | -83.35958 | 37943 ft | 386 kts | 277° |
| 2026-05-08 14:05 | 42.94011 | -83.65160 | 37958 ft | 386 kts | 277° |
| 2026-05-08 14:06 | 42.96512 | -83.94169 | 37949 ft | 387 kts | 277° |
| 2026-05-08 14:06 | 42.98943 | -84.23345 | 37969 ft | 386 kts | 276° |
| 2026-05-08 14:07 | 43.01310 | -84.52624 | 37956 ft | 387 kts | 276° |
| 2026-05-08 14:07 | 43.04359 | -84.81645 | 37954 ft | 386 kts | 279° |
| 2026-05-08 14:08 | 43.07605 | -85.10595 | 37935 ft | 386 kts | 278° |
| 2026-05-08 14:08 | 43.10767 | -85.39774 | 37945 ft | 386 kts | 278° |
| 2026-05-08 14:09 | 43.13859 | -85.68993 | 37924 ft | 386 kts | 278° |
| 2026-05-08 14:09 | 43.16849 | -85.97971 | 37949 ft | 387 kts | 278° |
| 2026-05-08 14:10 | 43.19773 | -86.27233 | 37919 ft | 387 kts | 276° |
| 2026-05-08 14:10 | 43.18820 | -86.56801 | 37938 ft | 387 kts | 269° |
| 2026-05-08 14:11 | 43.17788 | -86.86173 | 37939 ft | 386 kts | 269° |
| 2026-05-08 14:11 | 43.16676 | -87.15520 | 37928 ft | 386 kts | 268° |
| 2026-05-08 14:12 | 43.15486 | -87.44911 | 37935 ft | 385 kts | 268° |
| 2026-05-08 14:12 | 43.14231 | -87.74084 | 37927 ft | 385 kts | 268° |
| 2026-05-08 14:13 | 43.13035 | -88.00403 | 37936 ft | 384 kts | 268° |
| 2026-05-08 14:13 | 43.12740 | -88.06707 | 37935 ft | 384 kts | 268° |
| 2026-05-08 14:14 | 43.12564 | -88.10440 | 37916 ft | 384 kts | 268° |
| 2026-05-08 14:15 | 43.12559 | -88.10548 | 37920 ft | 384 kts | 268° |
| 2026-05-08 14:15 | 43.12212 | -88.17830 | 37941 ft | 384 kts | 268° |
| 2026-05-08 14:16 | 43.11859 | -88.25116 | 37943 ft | 383 kts | 268° |
| 2026-05-08 14:16 | 43.11720 | -88.32381 | 37952 ft | 381 kts | 272° |
| 2026-05-08 14:17 | 43.11754 | -88.34484 | 37940 ft | 382 kts | 272° |
| 2026-05-08 14:19 | 43.11848 | -88.39412 | 37948 ft | 381 kts | 272° |
| 2026-05-08 14:20 | 43.11987 | -88.46679 | 37931 ft | 381 kts | 272° |
| 2026-05-08 14:20 | 43.12111 | -88.53931 | 37913 ft | 380 kts | 272° |
| 2026-05-08 14:21 | 43.12223 | -88.61133 | 37915 ft | 380 kts | 271° |
| 2026-05-08 14:21 | 43.12328 | -88.68353 | 37917 ft | 380 kts | 271° |
| 2026-05-08 14:22 | 43.12429 | -88.75620 | 37914 ft | 380 kts | 271° |
| 2026-05-08 14:22 | 43.12524 | -88.82834 | 37914 ft | 379 kts | 271° |
| 2026-05-08 14:23 | 43.12614 | -88.90050 | 37913 ft | 380 kts | 271° |
| 2026-05-08 14:23 | 43.12700 | -88.97237 | 37916 ft | 380 kts | 271° |
| 2026-05-08 14:24 | 43.12782 | -89.04474 | 37910 ft | 380 kts | 271° |
| 2026-05-08 14:24 | 43.12859 | -89.11708 | 37918 ft | 380 kts | 271° |
| 2026-05-08 14:25 | 43.12932 | -89.18919 | 37920 ft | 380 kts | 271° |
| 2026-05-08 14:25 | 43.13000 | -89.26203 | 37906 ft | 381 kts | 271° |
| 2026-05-08 14:26 | 43.13063 | -89.33412 | 37913 ft | 381 kts | 271° |
| 2026-05-08 14:26 | 43.13123 | -89.40669 | 37916 ft | 381 kts | 271° |
| 2026-05-08 14:27 | 43.13177 | -89.47917 | 37920 ft | 381 kts | 271° |
| 2026-05-08 14:27 | 43.13227 | -89.55196 | 37915 ft | 382 kts | 271° |
| 2026-05-08 14:28 | 43.13272 | -89.62404 | 37916 ft | 382 kts | 271° |
| 2026-05-08 14:28 | 43.13313 | -89.69684 | 37907 ft | 382 kts | 271° |
| 2026-05-08 14:29 | 43.13350 | -89.76958 | 37903 ft | 382 kts | 271° |
| 2026-05-08 14:29 | 43.13381 | -89.84250 | 37905 ft | 382 kts | 271° |
| 2026-05-08 14:30 | 43.13408 | -89.91481 | 37906 ft | 382 kts | 271° |
| 2026-05-08 14:30 | 43.13431 | -89.98757 | 37905 ft | 381 kts | 271° |
| 2026-05-08 14:31 | 43.13449 | -90.06029 | 37922 ft | 381 kts | 270° |
| 2026-05-08 14:31 | 43.13462 | -90.13266 | 37918 ft | 381 kts | 270° |
| 2026-05-08 14:32 | 43.13473 | -90.24163 | 37915 ft | 381 kts | 270° |
| 2026-05-08 14:32 | 43.13475 | -90.31382 | 37917 ft | 381 kts | 270° |
| 2026-05-08 14:33 | 43.13473 | -90.38628 | 37912 ft | 380 kts | 270° |
| 2026-05-08 14:33 | 43.13465 | -90.45867 | 37924 ft | 381 kts | 270° |
| 2026-05-08 14:34 | 43.13453 | -90.53135 | 37925 ft | 381 kts | 270° |
| 2026-05-08 14:34 | 43.13437 | -90.60397 | 37928 ft | 381 kts | 270° |
| 2026-05-08 14:35 | 43.13416 | -90.67610 | 37929 ft | 382 kts | 270° |
| 2026-05-08 14:35 | 43.13390 | -90.74886 | 37922 ft | 382 kts | 270° |
| 2026-05-08 14:36 | 43.13360 | -90.82187 | 37927 ft | 382 kts | 270° |
| 2026-05-08 14:36 | 43.13325 | -90.89435 | 37929 ft | 382 kts | 270° |
| 2026-05-08 14:37 | 43.13285 | -90.96717 | 37923 ft | 382 kts | 270° |
| 2026-05-08 14:37 | 43.13241 | -91.03967 | 37923 ft | 383 kts | 270° |
| 2026-05-08 14:38 | 43.13193 | -91.11247 | 37924 ft | 383 kts | 270° |
| 2026-05-08 14:38 | 43.13140 | -91.18534 | 37918 ft | 383 kts | 269° |
| 2026-05-08 14:39 | 43.13081 | -91.25835 | 37925 ft | 382 kts | 269° |
| 2026-05-08 14:39 | 43.13018 | -91.33124 | 37922 ft | 382 kts | 269° |
| 2026-05-08 14:40 | 43.12951 | -91.40374 | 37918 ft | 382 kts | 269° |
| 2026-05-08 14:40 | 43.12880 | -91.47624 | 37902 ft | 382 kts | 269° |
| 2026-05-08 14:41 | 43.12803 | -91.54902 | 37890 ft | 382 kts | 269° |
| 2026-05-08 14:41 | 43.12722 | -91.62195 | 37894 ft | 382 kts | 269° |
| 2026-05-08 14:42 | 43.12637 | -91.69419 | 37892 ft | 382 kts | 269° |
| 2026-05-08 14:42 | 43.12547 | -91.76716 | 37892 ft | 382 kts | 269° |
| 2026-05-08 14:43 | 43.12452 | -91.83950 | 37892 ft | 382 kts | 269° |
| 2026-05-08 14:43 | 43.12353 | -91.91213 | 37891 ft | 383 kts | 269° |
| 2026-05-08 14:44 | 43.12249 | -91.98522 | 37904 ft | 383 kts | 269° |
| 2026-05-08 14:44 | 43.12140 | -92.05796 | 37908 ft | 383 kts | 269° |
| 2026-05-08 14:45 | 43.12026 | -92.13098 | 37899 ft | 384 kts | 269° |
| 2026-05-08 14:45 | 43.11908 | -92.20377 | 37901 ft | 384 kts | 269° |
| 2026-05-08 14:46 | 43.11785 | -92.27719 | 37898 ft | 385 kts | 269° |
| 2026-05-08 14:46 | 43.11657 | -92.35041 | 37893 ft | 385 kts | 269° |
| 2026-05-08 14:47 | 43.11524 | -92.42344 | 37896 ft | 386 kts | 269° |
| 2026-05-08 14:47 | 43.11387 | -92.49686 | 37899 ft | 386 kts | 269° |
| 2026-05-08 14:48 | 43.11269 | -92.55784 | 37900 ft | 386 kts | 269° |
| 2026-05-08 14:48 | 43.11122 | -92.63151 | 37894 ft | 386 kts | 269° |
| 2026-05-08 14:49 | 43.10972 | -92.70469 | 37892 ft | 387 kts | 269° |
| 2026-05-08 14:49 | 43.10815 | -92.77856 | 37898 ft | 387 kts | 268° |
| 2026-05-08 14:50 | 43.10655 | -92.85185 | 37882 ft | 387 kts | 268° |
| 2026-05-08 14:50 | 43.10491 | -92.92510 | 37885 ft | 387 kts | 268° |
| 2026-05-08 14:51 | 43.10321 | -92.99854 | 37882 ft | 387 kts | 268° |
| 2026-05-08 14:51 | 43.10144 | -93.07289 | 37875 ft | 388 kts | 268° |
| 2026-05-08 14:52 | 43.09875 | -93.18299 | 37899 ft | 388 kts | 268° |
| 2026-05-08 14:53 | 43.09689 | -93.25679 | 37904 ft | 389 kts | 268° |